createdAt,value
2019-01-29T00:01:00.372Z,0.60
2019-01-29T00:04:17.263Z,0.40
2019-01-29T00:07:33.011Z,0.60
2019-01-29T00:10:49.075Z,0.70
2019-01-29T00:14:04.473Z,0.40
2019-01-29T00:17:20.568Z,0.50
2019-01-29T00:20:36.184Z,0.80
2019-01-29T00:23:52.158Z,0.60
2019-01-29T00:27:08.023Z,0.37
2019-01-29T00:30:24.663Z,0.40
2019-01-29T00:33:38.516Z,0.60
2019-01-29T00:37:01.257Z,0.93
2019-01-29T00:40:16.624Z,0.40
2019-01-29T00:43:32.490Z,0.50
2019-01-29T00:46:48.292Z,0.80
2019-01-29T00:50:01.971Z,0.60
2019-01-29T00:53:24.717Z,0.60
2019-01-29T00:56:28.007Z,0.40
2019-01-29T00:59:52.329Z,0.40
2019-01-29T01:03:36.847Z,0.40
2019-01-29T01:06:53.937Z,0.50
2019-01-29T01:10:09.811Z,0.47
2019-01-29T01:13:25.536Z,0.40
2019-01-29T01:16:41.247Z,0.50
2019-01-29T01:19:56.897Z,0.50
2019-01-29T01:23:13.002Z,0.43
2019-01-29T01:26:29.133Z,0.40
2019-01-29T01:29:44.735Z,0.40
2019-01-29T01:32:58.399Z,0.40
2019-01-29T01:36:21.069Z,0.40
2019-01-29T01:39:38.440Z,0.67
2019-01-29T01:42:54.346Z,0.53
2019-01-29T01:46:09.706Z,0.50
2019-01-29T01:49:24.895Z,0.80
2019-01-29T01:52:40.798Z,0.60
2019-01-29T01:55:56.339Z,0.50
2019-01-29T01:59:12.499Z,0.60
2019-01-29T02:02:28.449Z,0.70
2019-01-29T02:05:43.789Z,0.50
2019-01-29T02:08:59.676Z,0.70
2019-01-29T02:12:15.561Z,0.43
2019-01-29T02:15:31.389Z,0.50
2019-01-29T02:18:47.475Z,0.43
2019-01-29T02:22:03.361Z,0.93
2019-01-29T02:25:20.176Z,0.70
2019-01-29T02:28:36.047Z,0.50
2019-01-29T02:31:51.313Z,0.40
2019-01-29T02:35:07.004Z,0.40
2019-01-29T02:38:22.311Z,0.50
2019-01-29T02:41:37.907Z,0.53
2019-01-29T02:44:54.011Z,0.60
2019-01-29T02:48:09.779Z,0.63
2019-01-29T02:51:25.860Z,0.50
2019-01-29T02:54:41.681Z,0.50
2019-01-29T02:57:57.595Z,0.50
2019-01-29T03:01:12.833Z,0.77
2019-01-29T03:04:28.877Z,0.90
2019-01-29T03:07:44.800Z,0.53
2019-01-29T03:11:00.932Z,0.70
2019-01-29T03:14:16.443Z,0.70
2019-01-29T03:17:32.309Z,0.50
2019-01-29T03:20:48.287Z,0.60
2019-01-29T03:24:04.112Z,0.60
2019-01-29T03:27:19.795Z,0.60
2019-01-29T03:30:35.584Z,0.60
2019-01-29T03:33:50.826Z,0.50
2019-01-29T03:37:06.078Z,0.60
2019-01-29T03:40:23.575Z,0.60
2019-01-29T03:43:36.642Z,1.10
2019-01-29T03:46:59.317Z,0.50
2019-01-29T03:50:15.391Z,0.50
2019-01-29T03:53:37.941Z,0.50
2019-01-29T03:56:48.336Z,0.83
2019-01-29T04:00:04.637Z,0.50
2019-01-29T04:03:20.339Z,0.70
2019-01-29T04:06:36.467Z,0.80
2019-01-29T04:09:52.504Z,0.70
2019-01-29T04:13:08.388Z,0.60
2019-01-29T04:19:48.577Z,0.93
2019-01-29T04:23:04.509Z,0.60
2019-01-29T04:26:20.348Z,0.60
2019-01-29T04:29:36.389Z,0.60
2019-01-29T04:32:51.672Z,0.60
2019-01-29T04:36:07.506Z,0.80
2019-01-29T04:39:23.240Z,0.50
2019-01-29T04:42:38.454Z,0.60
2019-01-29T04:45:54.363Z,0.77
2019-01-29T04:49:10.464Z,1.63
2019-01-29T04:52:26.340Z,0.70
2019-01-29T04:55:42.376Z,0.70
2019-01-29T04:58:58.129Z,0.80
2019-01-29T05:02:13.364Z,0.70
2019-01-29T05:05:28.715Z,0.50
2019-01-29T05:08:44.399Z,0.60
2019-01-29T05:15:24.768Z,0.60
2019-01-29T05:18:40.179Z,0.53
2019-01-29T05:21:56.204Z,0.80
2019-01-29T05:25:12.231Z,0.70
2019-01-29T05:28:28.100Z,0.67
2019-01-29T05:31:44.297Z,1.10
2019-01-29T05:34:59.538Z,0.60
2019-01-29T05:38:14.720Z,0.87
2019-01-29T05:41:30.728Z,0.77
2019-01-29T05:44:46.119Z,0.60
2019-01-29T05:48:01.861Z,0.60
2019-01-29T05:51:17.827Z,0.70
2019-01-29T05:54:33.868Z,0.60
2019-01-29T05:57:49.771Z,0.77
2019-01-29T06:01:03.463Z,0.77
2019-01-29T06:04:26.125Z,0.70
2019-01-29T06:07:41.756Z,0.67
2019-01-29T06:10:57.632Z,0.80
2019-01-29T06:14:13.296Z,0.70
2019-01-29T06:17:27.479Z,0.70
2019-01-29T06:20:50.358Z,0.90
2019-01-29T06:24:05.604Z,1.50
2019-01-29T06:27:20.879Z,1.10
2019-01-29T06:30:36.119Z,0.70
2019-01-29T06:33:51.447Z,0.70
2019-01-29T06:37:06.843Z,0.93
2019-01-29T06:40:22.235Z,1.30
2019-01-29T06:43:37.666Z,0.80
2019-01-29T06:46:53.690Z,0.90
2019-01-29T06:50:09.707Z,0.80
2019-01-29T06:56:29.733Z,0.70
2019-01-29T06:59:52.463Z,0.70
2019-01-29T07:03:07.901Z,0.80
2019-01-29T07:06:24.000Z,0.90
2019-01-29T07:09:40.086Z,0.90
2019-01-29T07:12:55.355Z,0.70
2019-01-29T07:16:13.049Z,0.83
2019-01-29T07:19:30.083Z,0.70
2019-01-29T07:22:45.475Z,0.80
2019-01-29T07:26:03.881Z,0.53
2019-01-29T07:29:19.409Z,0.80
2019-01-29T07:32:35.145Z,0.73
2019-01-29T07:35:50.944Z,0.90
2019-01-29T07:39:06.281Z,0.60
2019-01-29T07:42:22.174Z,0.90
2019-01-29T07:45:37.434Z,0.93
2019-01-29T07:48:51.068Z,0.90
2019-01-29T07:52:06.656Z,0.57
2019-01-29T07:55:20.230Z,0.93
2019-01-29T07:58:42.899Z,0.70
2019-01-29T08:01:58.792Z,0.77
2019-01-29T08:05:14.768Z,0.80
2019-01-29T08:08:28.355Z,0.60
2019-01-29T08:11:43.599Z,0.70
2019-01-29T08:14:59.689Z,1.03
2019-01-29T08:18:15.560Z,0.73
2019-01-29T08:21:31.511Z,1.37
2019-01-29T08:24:51.801Z,0.90
2019-01-29T08:31:26.126Z,1.03
2019-01-29T08:34:42.172Z,0.90
2019-01-29T08:37:58.176Z,2.10
2019-01-29T08:41:13.934Z,0.80
2019-01-29T08:44:29.338Z,1.40
2019-01-29T08:47:44.754Z,1.17
2019-01-29T08:51:00.171Z,1.20
2019-01-29T08:54:15.562Z,1.40
2019-01-29T08:57:31.488Z,2.83
2019-01-29T09:00:46.781Z,1.27
2019-01-29T09:04:02.965Z,0.80
2019-01-29T09:07:18.988Z,1.83
2019-01-29T09:10:34.249Z,1.37
2019-01-29T09:13:40.452Z,1.53
2019-01-29T09:16:43.572Z,2.17
2019-01-29T09:23:52.295Z,0.83
2019-01-29T09:27:06.943Z,1.07
2019-01-29T09:30:22.872Z,1.40
2019-01-29T09:33:38.940Z,1.30
2019-01-29T09:40:18.322Z,1.97
2019-01-29T09:43:34.340Z,1.30
2019-01-29T09:46:50.364Z,1.13
2019-01-29T09:50:09.102Z,1.27
2019-01-29T09:53:24.493Z,1.07
2019-01-29T09:56:42.372Z,0.90
2019-01-29T09:59:57.754Z,0.87
2019-01-29T10:03:13.664Z,1.93
2019-01-29T10:06:28.897Z,0.80
2019-01-29T10:09:44.888Z,2.23
2019-01-29T10:13:00.705Z,2.27
2019-01-29T10:16:16.021Z,1.40
2019-01-29T10:19:32.108Z,1.33
2019-01-29T10:22:50.096Z,2.13
2019-01-29T10:26:08.245Z,1.90
2019-01-29T10:29:23.612Z,1.37
2019-01-29T10:32:39.095Z,2.13
2019-01-29T10:35:57.337Z,1.50
2019-01-29T10:39:12.704Z,1.43
2019-01-29T10:42:30.370Z,1.00
2019-01-29T10:45:45.659Z,2.57
2019-01-29T10:49:01.634Z,1.97
2019-01-29T10:52:16.944Z,1.50
2019-01-29T10:55:32.631Z,1.60
2019-01-29T10:58:47.881Z,1.40
2019-01-29T11:02:04.882Z,1.33
2019-01-29T11:05:20.510Z,1.30
2019-01-29T11:08:36.294Z,1.20
2019-01-29T11:11:51.515Z,1.20
2019-01-29T11:15:07.365Z,1.10
2019-01-29T11:18:22.851Z,1.30
2019-01-29T11:21:38.894Z,1.53
2019-01-29T11:24:54.774Z,2.00
2019-01-29T11:28:10.677Z,2.00
2019-01-29T11:34:44.004Z,1.33
2019-01-29T11:38:00.052Z,0.87
2019-01-29T11:44:33.391Z,1.73
2019-01-29T11:51:12.928Z,1.57
2019-01-29T11:54:28.140Z,1.07
2019-01-29T11:57:41.719Z,1.63
2019-01-29T12:04:40.779Z,1.03
2019-01-29T12:07:56.147Z,1.47
2019-01-29T12:11:11.404Z,1.80
2019-01-29T12:14:26.629Z,1.13
2019-01-29T12:17:42.573Z,1.63
2019-01-29T12:24:15.349Z,1.03
2019-01-29T12:27:30.659Z,2.40
2019-01-29T12:30:44.221Z,1.87
2019-01-29T12:33:59.868Z,2.37
2019-01-29T12:37:15.973Z,1.33
2019-01-29T12:40:31.884Z,2.33
2019-01-29T12:43:45.586Z,1.57
2019-01-29T12:47:08.266Z,1.27
2019-01-29T12:50:23.880Z,1.53
2019-01-29T12:53:40.026Z,0.77
2019-01-29T12:56:55.311Z,1.20
2019-01-29T13:00:11.154Z,3.80
2019-01-29T13:03:27.196Z,2.37
2019-01-29T13:06:43.079Z,1.37
2019-01-29T13:09:59.157Z,2.73
2019-01-29T13:13:14.895Z,1.13
2019-01-29T13:16:31.010Z,1.43
2019-01-29T13:19:47.681Z,0.80
2019-01-29T13:23:03.523Z,0.93
2019-01-29T13:26:19.272Z,1.23
2019-01-29T13:29:35.101Z,3.27
2019-01-29T13:32:51.076Z,3.00
2019-01-29T13:36:08.032Z,3.50
2019-01-29T13:39:23.824Z,1.50
2019-01-29T13:42:39.836Z,2.63
2019-01-29T13:45:55.238Z,1.67
2019-01-29T13:49:08.799Z,1.73
2019-01-29T13:52:31.471Z,2.03
2019-01-29T13:55:48.026Z,1.07
2019-01-29T13:59:03.940Z,1.53
2019-01-29T14:02:19.994Z,1.10
2019-01-29T14:05:35.882Z,1.10
2019-01-29T14:08:51.145Z,2.70
2019-01-29T14:12:06.930Z,5.47
2019-01-29T14:15:41.337Z,1.47
2019-01-29T14:18:56.819Z,1.80
2019-01-29T14:22:12.856Z,1.00
2019-01-29T14:25:28.202Z,1.57
2019-01-29T14:28:41.820Z,2.27
2019-01-29T14:32:04.492Z,1.73
2019-01-29T14:35:19.812Z,2.30
2019-01-29T14:38:35.274Z,2.27
2019-01-29T14:41:50.569Z,2.07
2019-01-29T14:45:06.564Z,1.50
2019-01-29T14:48:22.671Z,4.27
2019-01-29T14:51:38.506Z,2.87
2019-01-29T14:54:54.482Z,1.97
2019-01-29T14:58:10.540Z,1.23
2019-01-29T15:01:25.793Z,1.37
2019-01-29T15:04:41.800Z,3.03
2019-01-29T15:08:00.740Z,1.57
2019-01-29T15:11:16.073Z,1.97
2019-01-29T15:14:31.453Z,1.43
2019-01-29T15:17:52.176Z,0.90
2019-01-29T15:21:07.524Z,2.40
2019-01-29T15:24:23.011Z,0.70
2019-01-29T15:27:38.465Z,1.43
2019-01-29T15:30:53.730Z,2.80
2019-01-29T15:34:09.785Z,1.03
2019-01-29T15:37:25.816Z,3.90
2019-01-29T15:40:41.700Z,1.20
2019-01-29T15:43:57.763Z,1.50
2019-01-29T15:47:13.855Z,1.67
2019-01-29T15:50:31.045Z,0.87
2019-01-29T15:53:46.062Z,1.20
2019-01-29T15:57:01.584Z,1.90
2019-01-29T16:00:17.367Z,1.77
2019-01-29T16:03:33.299Z,0.73
2019-01-29T16:06:49.284Z,2.33
2019-01-29T16:10:04.657Z,1.53
2019-01-29T16:13:19.819Z,2.57
2019-01-29T16:16:35.941Z,2.27
2019-01-29T16:19:51.980Z,1.47
2019-01-29T16:23:07.894Z,1.93
2019-01-29T16:26:23.956Z,1.33
2019-01-29T16:29:40.139Z,3.07
2019-01-29T16:32:55.433Z,3.47
2019-01-29T16:36:10.792Z,1.73
2019-01-29T16:39:24.446Z,1.43
2019-01-29T16:42:27.782Z,2.47
2019-01-29T16:45:50.463Z,1.57
2019-01-29T16:49:13.140Z,0.90
2019-01-29T16:52:29.175Z,1.10
2019-01-29T16:55:45.150Z,1.93
2019-01-29T17:02:18.090Z,1.60
2019-01-29T17:05:34.060Z,1.77
2019-01-29T17:08:49.371Z,1.13
2019-01-29T17:12:05.328Z,4.40
2019-01-29T17:15:21.335Z,1.67
2019-01-29T17:18:37.500Z,1.63
2019-01-29T17:21:52.753Z,1.60
2019-01-29T17:25:08.088Z,1.70
2019-01-29T17:28:24.792Z,1.43
2019-01-29T17:31:40.767Z,1.10
2019-01-29T17:35:00.183Z,2.73
2019-01-29T17:38:13.032Z,2.47
2019-01-29T17:41:30.026Z,2.47
2019-01-29T17:44:45.276Z,1.57
2019-01-29T17:48:01.178Z,3.53
2019-01-29T17:51:16.386Z,0.97
2019-01-29T17:57:50.759Z,1.50
2019-01-29T18:01:06.835Z,1.77
2019-01-29T18:04:22.360Z,1.67
2019-01-29T18:07:37.552Z,1.63
2019-01-29T18:10:52.883Z,3.23
2019-01-29T18:14:08.065Z,2.53
2019-01-29T18:17:23.240Z,1.00
2019-01-29T18:20:39.157Z,2.33
2019-01-29T18:23:55.281Z,2.27
2019-01-29T18:27:08.813Z,1.27
2019-01-29T18:30:32.479Z,1.43
2019-01-29T18:33:48.271Z,1.97
2019-01-29T18:37:03.536Z,1.03
2019-01-29T18:40:19.484Z,1.93
2019-01-29T18:43:34.670Z,1.80
2019-01-29T18:46:50.520Z,2.23
2019-01-29T18:50:06.532Z,1.33
2019-01-29T18:53:22.647Z,2.47
2019-01-29T18:56:38.801Z,1.83
2019-01-29T18:59:54.058Z,1.20
2019-01-29T19:03:07.639Z,1.30
2019-01-29T19:06:30.329Z,1.10
2019-01-29T19:09:45.555Z,1.30
2019-01-29T19:13:01.816Z,2.10
2019-01-29T19:16:17.587Z,1.53
2019-01-29T19:19:33.624Z,1.73
2019-01-29T19:22:47.244Z,2.13
2019-01-29T19:26:09.948Z,2.37
2019-01-29T19:29:25.213Z,1.27
2019-01-29T19:32:41.260Z,1.23
2019-01-29T19:35:57.284Z,1.90
2019-01-29T19:39:13.097Z,1.10
2019-01-29T19:42:27.524Z,1.20
2019-01-29T19:45:50.533Z,1.80
2019-01-29T19:49:05.900Z,2.50
2019-01-29T19:52:21.252Z,1.80
2019-01-29T19:55:37.136Z,1.63
2019-01-29T19:58:53.136Z,1.50
2019-01-29T20:02:09.063Z,1.20
2019-01-29T20:05:25.056Z,1.07
2019-01-29T20:08:40.800Z,1.40
2019-01-29T20:11:59.249Z,1.20
2019-01-29T20:15:13.748Z,1.87
2019-01-29T20:18:32.177Z,5.23
2019-01-29T20:21:48.092Z,1.43
2019-01-29T20:25:03.472Z,1.90
2019-01-29T20:28:19.631Z,1.70
2019-01-29T20:31:34.789Z,2.10
2019-01-29T20:34:50.980Z,2.23
2019-01-29T20:38:07.011Z,2.57
2019-01-29T20:41:20.663Z,1.93
2019-01-29T20:44:43.357Z,2.47
2019-01-29T20:47:58.563Z,1.93
2019-01-29T20:51:12.180Z,1.80
2019-01-29T20:54:25.777Z,2.13
2019-01-29T20:57:48.449Z,1.87
2019-01-29T21:01:04.485Z,2.30
2019-01-29T21:04:20.231Z,2.90
2019-01-29T21:07:36.115Z,2.23
2019-01-29T21:10:52.204Z,2.57
2019-01-29T21:14:07.915Z,2.50
2019-01-29T21:17:23.830Z,2.27
2019-01-29T21:20:39.075Z,2.07
2019-01-29T21:23:55.165Z,2.70
2019-01-29T21:27:10.513Z,2.73
2019-01-29T21:30:26.572Z,2.87
2019-01-29T21:33:41.851Z,2.67
2019-01-29T21:36:57.759Z,2.50
2019-01-29T21:40:12.385Z,2.70
2019-01-29T21:43:28.460Z,2.43
2019-01-29T21:46:43.715Z,2.47
2019-01-29T21:49:59.679Z,2.63
2019-01-29T21:53:15.600Z,2.57
2019-01-29T21:56:31.494Z,2.73
2019-01-29T21:59:47.539Z,2.80
2019-01-29T22:03:03.369Z,2.97
2019-01-29T22:06:19.228Z,2.60
2019-01-29T22:09:34.932Z,3.27
2019-01-29T22:12:50.638Z,2.60
2019-01-29T22:16:06.405Z,2.60
2019-01-29T22:19:22.049Z,2.70
2019-01-29T22:22:38.100Z,2.80
2019-01-29T22:25:53.940Z,2.60
2019-01-29T22:29:09.709Z,2.33
2019-01-29T22:32:25.447Z,2.63
2019-01-29T22:35:41.372Z,3.33
2019-01-29T22:38:56.707Z,2.83
2019-01-29T22:42:12.162Z,2.47
2019-01-29T22:45:28.191Z,2.47
2019-01-29T22:48:43.882Z,2.57
2019-01-29T22:51:59.719Z,2.93
2019-01-29T22:55:15.431Z,2.33
2019-01-29T22:58:31.052Z,2.63
2019-01-29T23:01:46.824Z,2.80
2019-01-29T23:05:02.595Z,3.67
2019-01-29T23:08:18.556Z,3.13
2019-01-29T23:11:34.437Z,3.83
2019-01-29T23:14:50.178Z,3.30
2019-01-29T23:21:29.852Z,2.93
2019-01-29T23:24:45.821Z,3.17
2019-01-29T23:28:01.788Z,3.20
2019-01-29T23:31:17.528Z,3.53
2019-01-29T23:34:20.800Z,2.90
2019-01-29T23:37:43.476Z,3.00
2019-01-29T23:40:58.776Z,2.90
2019-01-29T23:44:14.524Z,3.97
2019-01-29T23:47:30.516Z,3.20
2019-01-29T23:50:46.563Z,3.53
2019-01-29T23:54:02.196Z,3.30
2019-01-29T23:57:17.372Z,4.20
